createdAt,value
2023-01-26T00:01:14.295Z,97.23
2023-01-26T00:03:45.942Z,97.52
2023-01-26T00:06:19.257Z,97.53
2023-01-26T00:08:55.170Z,97.30
2023-01-26T00:11:27.862Z,97.75
2023-01-26T00:14:00.539Z,97.16
2023-01-26T00:16:31.835Z,97.19
2023-01-26T00:19:03.489Z,97.23
2023-01-26T00:21:34.951Z,97.57
2023-01-26T00:24:06.883Z,97.44
2023-01-26T00:26:38.226Z,96.97
2023-01-26T00:29:09.535Z,97.17
2023-01-26T00:31:40.908Z,97.43
2023-01-26T00:34:12.453Z,96.87
2023-01-26T00:36:43.777Z,96.96
2023-01-26T00:39:15.019Z,97.03
2023-01-26T00:42:04.963Z,97.46
2023-01-26T00:44:38.478Z,97.33
2023-01-26T00:47:11.855Z,96.98
2023-01-26T00:49:43.907Z,97.38
2023-01-26T00:52:15.185Z,97.03
2023-01-26T00:54:46.472Z,97.51
2023-01-26T00:57:17.738Z,96.79
2023-01-26T00:59:48.993Z,97.19
2023-01-26T01:02:20.569Z,97.38
2023-01-26T01:04:52.935Z,97.15
2023-01-26T01:07:24.370Z,97.12
2023-01-26T01:09:55.624Z,97.20
2023-01-26T01:12:27.362Z,97.51
2023-01-26T01:14:58.610Z,96.75
2023-01-26T01:17:29.888Z,97.56
2023-01-26T01:20:01.189Z,97.60
2023-01-26T01:22:33.727Z,97.53
2023-01-26T01:25:05.796Z,97.41
2023-01-26T01:27:37.107Z,97.21
2023-01-26T01:30:09.445Z,97.23
2023-01-26T01:32:40.949Z,97.25
2023-01-26T01:35:12.229Z,96.98
2023-01-26T01:37:43.502Z,96.94
2023-01-26T01:40:15.003Z,96.88
2023-01-26T01:42:48.511Z,97.06
2023-01-26T01:45:25.607Z,97.11
2023-01-26T01:48:01.131Z,97.33
2023-01-26T01:50:38.472Z,97.27
2023-01-26T01:53:16.771Z,96.88
2023-01-26T01:55:48.259Z,97.61
2023-01-26T01:58:19.997Z,97.65
2023-01-26T02:00:51.306Z,97.71
2023-01-26T02:03:22.913Z,97.96
2023-01-26T02:05:59.485Z,97.66
2023-01-26T02:08:34.251Z,97.77
2023-01-26T02:11:12.779Z,97.99
2023-01-26T02:13:47.183Z,97.10
2023-01-26T02:16:19.660Z,97.78
2023-01-26T02:18:51.209Z,97.40
2023-01-26T02:21:23.728Z,97.90
2023-01-26T02:24:17.145Z,97.24
2023-01-26T02:26:48.466Z,97.25
2023-01-26T02:29:20.992Z,97.94
2023-01-26T02:31:53.597Z,97.68
2023-01-26T02:34:28.721Z,97.13
2023-01-26T02:37:01.206Z,97.72
2023-01-26T02:39:48.904Z,98.10
2023-01-26T02:42:38.629Z,97.82
2023-01-26T02:45:14.065Z,97.11
2023-01-26T02:47:45.413Z,97.11
2023-01-26T02:50:16.993Z,98.07
2023-01-26T02:52:48.296Z,97.46
2023-01-26T02:55:22.229Z,97.57
2023-01-26T02:57:59.279Z,97.39
2023-01-26T03:00:37.455Z,98.01
2023-01-26T03:03:14.941Z,97.05
2023-01-26T03:05:46.378Z,97.14
2023-01-26T03:08:18.002Z,97.56
2023-01-26T03:10:49.283Z,97.53
2023-01-26T03:13:20.703Z,97.44
2023-01-26T03:15:54.782Z,97.86
2023-01-26T03:18:44.669Z,97.43
2023-01-26T03:21:35.381Z,97.48
2023-01-26T03:24:30.646Z,98.00
2023-01-26T03:27:20.571Z,97.71
2023-01-26T03:29:51.958Z,98.05
2023-01-26T03:32:24.421Z,97.27
2023-01-26T03:34:55.755Z,97.95
2023-01-26T03:37:27.020Z,97.81
2023-01-26T03:40:17.158Z,97.49
2023-01-26T03:43:06.908Z,97.98
2023-01-26T03:45:57.081Z,97.30
2023-01-26T03:48:47.108Z,97.68
2023-01-26T03:51:37.114Z,97.20
2023-01-26T03:54:27.247Z,97.89
2023-01-26T03:56:58.517Z,98.01
2023-01-26T03:59:39.084Z,98.10
2023-01-26T04:02:30.888Z,97.56
2023-01-26T04:05:20.675Z,97.05
2023-01-26T04:08:10.530Z,97.89
2023-01-26T04:10:41.794Z,97.91
2023-01-26T04:13:31.785Z,97.46
2023-01-26T04:16:22.647Z,97.51
2023-01-26T04:19:13.621Z,97.80
2023-01-26T04:21:44.869Z,97.99
2023-01-26T04:24:17.323Z,97.92
2023-01-26T04:26:48.722Z,97.60
2023-01-26T04:29:20.003Z,97.76
2023-01-26T04:31:51.321Z,97.97
2023-01-26T04:34:22.729Z,97.69
2023-01-26T04:36:54.110Z,98.28
2023-01-26T04:39:25.484Z,97.90
2023-01-26T04:41:57.297Z,97.49
2023-01-26T04:44:28.664Z,97.83
2023-01-26T04:46:59.949Z,97.50
2023-01-26T04:49:31.220Z,98.30
2023-01-26T04:52:02.621Z,97.60
2023-01-26T04:54:33.909Z,97.88
2023-01-26T04:57:05.213Z,98.18
2023-01-26T04:59:36.912Z,97.82
2023-01-26T05:02:09.499Z,97.70
2023-01-26T05:04:40.822Z,98.45
2023-01-26T05:07:12.266Z,97.48
2023-01-26T05:09:43.505Z,97.49
2023-01-26T05:12:33.496Z,97.95
2023-01-26T05:15:05.063Z,98.22
2023-01-26T05:17:36.322Z,97.51
2023-01-26T05:20:08.349Z,98.25
2023-01-26T05:22:40.291Z,98.08
2023-01-26T05:25:11.563Z,97.97
2023-01-26T05:27:42.816Z,98.20
2023-01-26T05:30:15.040Z,97.51
2023-01-26T05:32:46.616Z,97.74
2023-01-26T05:35:18.066Z,97.55
2023-01-26T05:37:49.327Z,97.69
2023-01-26T05:40:21.825Z,97.68
2023-01-26T05:42:54.065Z,97.82
2023-01-26T05:45:25.458Z,97.84
2023-01-26T05:47:56.784Z,97.68
2023-01-26T05:50:28.587Z,98.12
2023-01-26T05:53:00.592Z,97.67
2023-01-26T05:55:32.248Z,97.93
2023-01-26T05:58:03.532Z,98.04
2023-01-26T06:00:34.795Z,97.66
2023-01-26T06:03:06.063Z,97.79
2023-01-26T06:05:38.713Z,97.78
2023-01-26T06:08:09.986Z,98.17
2023-01-26T06:10:41.255Z,98.23
2023-01-26T06:13:12.585Z,97.88
2023-01-26T06:15:43.840Z,98.20
2023-01-26T06:18:15.105Z,97.77
2023-01-26T06:20:46.379Z,98.38
2023-01-26T06:23:17.647Z,97.72
2023-01-26T06:25:48.891Z,97.65
2023-01-26T06:28:20.143Z,97.50
2023-01-26T06:30:51.486Z,97.80
2023-01-26T06:33:23.213Z,97.53
2023-01-26T06:35:55.321Z,97.94
2023-01-26T06:38:26.568Z,98.07
2023-01-26T06:41:02.866Z,97.95
2023-01-26T06:43:35.564Z,98.01
2023-01-26T06:46:07.043Z,97.98
2023-01-26T06:48:38.989Z,98.06
2023-01-26T06:51:16.383Z,98.29
2023-01-26T06:53:58.246Z,97.92
2023-01-26T06:56:29.533Z,97.63
2023-01-26T06:59:00.799Z,97.93
2023-01-26T07:01:39.394Z,98.27
2023-01-26T07:04:11.047Z,97.79
2023-01-26T07:06:43.562Z,97.77
2023-01-26T07:09:14.834Z,97.92
2023-01-26T07:11:46.078Z,97.87
2023-01-26T07:14:17.394Z,97.82
2023-01-26T07:16:48.711Z,98.00
2023-01-26T07:19:20.026Z,97.35
2023-01-26T07:21:51.350Z,98.00
2023-01-26T07:24:22.934Z,97.50
2023-01-26T07:26:54.547Z,97.60
2023-01-26T07:29:25.838Z,97.65
2023-01-26T07:31:57.189Z,98.08
2023-01-26T07:34:28.505Z,97.99
2023-01-26T07:36:59.767Z,97.58
2023-01-26T07:39:31.543Z,97.45
2023-01-26T07:42:02.984Z,97.93
2023-01-26T07:44:34.238Z,97.66
2023-01-26T07:47:05.883Z,97.66
2023-01-26T07:49:37.160Z,97.78
2023-01-26T07:52:09.137Z,97.86
2023-01-26T07:54:40.420Z,97.84
2023-01-26T07:57:12.403Z,97.99
2023-01-26T07:59:44.707Z,97.84
2023-01-26T08:02:16.012Z,97.67
2023-01-26T08:04:47.352Z,97.21
2023-01-26T08:07:18.589Z,97.56
2023-01-26T08:09:49.836Z,97.40
2023-01-26T08:12:21.105Z,97.71
2023-01-26T08:14:52.540Z,98.02
2023-01-26T08:17:23.782Z,97.67
2023-01-26T08:19:55.055Z,97.86
2023-01-26T08:22:26.329Z,97.90
2023-01-26T08:24:57.596Z,97.72
2023-01-26T08:27:28.844Z,97.72
2023-01-26T08:30:00.171Z,97.56
2023-01-26T08:32:31.627Z,97.79
2023-01-26T08:35:03.251Z,97.67
2023-01-26T08:37:34.533Z,97.69
2023-01-26T08:40:06.511Z,97.91
2023-01-26T08:42:37.780Z,97.71
2023-01-26T08:45:09.741Z,97.54
2023-01-26T08:47:40.990Z,97.55
2023-01-26T08:50:12.556Z,97.73
2023-01-26T08:52:44.376Z,97.52
2023-01-26T08:55:15.682Z,97.54
2023-01-26T08:57:51.486Z,97.91
2023-01-26T09:00:23.707Z,98.27
2023-01-26T09:03:02.438Z,98.22
2023-01-26T09:05:36.505Z,97.94
2023-01-26T09:08:09.155Z,97.93
2023-01-26T09:10:40.425Z,97.91
2023-01-26T09:13:11.715Z,97.75
2023-01-26T09:15:43.050Z,98.04
2023-01-26T09:18:14.345Z,98.21
2023-01-26T09:20:45.651Z,98.11
2023-01-26T09:23:18.148Z,98.15
2023-01-26T09:25:53.237Z,97.44
2023-01-26T09:28:24.584Z,98.08
2023-01-26T09:30:55.983Z,98.04
2023-01-26T09:33:27.330Z,97.71
2023-01-26T09:36:10.449Z,98.25
2023-01-26T09:38:42.013Z,98.11
2023-01-26T09:41:28.253Z,98.55
2023-01-26T09:44:10.143Z,98.19
2023-01-26T09:47:08.873Z,98.16
2023-01-26T09:49:54.456Z,98.21
2023-01-26T09:52:37.912Z,98.48
2023-01-26T09:55:17.140Z,98.04
2023-01-26T09:57:58.189Z,98.77
2023-01-26T10:00:38.870Z,98.68
2023-01-26T10:03:25.339Z,98.52
2023-01-26T10:06:21.797Z,98.18
2023-01-26T10:08:55.095Z,98.38
2023-01-26T10:11:38.164Z,98.45
2023-01-26T10:14:33.798Z,98.23
2023-01-26T10:17:07.088Z,98.67
2023-01-26T10:19:55.009Z,98.77
2023-01-26T10:22:44.605Z,98.46
2023-01-26T10:25:25.523Z,98.91
2023-01-26T10:27:56.906Z,98.50
2023-01-26T10:30:28.230Z,98.85
2023-01-26T10:33:00.432Z,98.52
2023-01-26T10:35:31.780Z,98.10
2023-01-26T10:38:03.205Z,98.39
2023-01-26T10:40:44.439Z,98.67
2023-01-26T10:43:18.984Z,98.74
2023-01-26T10:45:50.326Z,99.34
2023-01-26T10:48:26.657Z,99.22
2023-01-26T10:51:15.348Z,99.32
2023-01-26T10:53:46.602Z,99.01
2023-01-26T10:56:18.388Z,98.52
2023-01-26T10:58:54.757Z,99.02
2023-01-26T11:01:28.127Z,99.10
2023-01-26T11:04:06.737Z,99.02
2023-01-26T11:06:38.585Z,99.24
2023-01-26T11:09:16.826Z,98.77
2023-01-26T11:11:56.461Z,99.33
2023-01-26T11:14:29.486Z,99.09
2023-01-26T11:17:24.358Z,98.91
2023-01-26T11:20:14.516Z,98.91
2023-01-26T11:23:02.303Z,99.00
2023-01-26T11:26:09.277Z,98.21
2023-01-26T11:28:55.408Z,99.04
2023-01-26T11:32:19.972Z,99.09
2023-01-26T11:35:10.362Z,99.31
2023-01-26T11:37:55.393Z,100.00
2023-01-26T11:40:55.270Z,99.76
2023-01-26T11:43:58.230Z,99.21
2023-01-26T11:46:41.640Z,99.77
2023-01-26T11:49:44.092Z,99.29
2023-01-26T11:52:36.802Z,100.00
2023-01-26T11:55:17.555Z,99.93
2023-01-26T11:58:02.955Z,99.98
2023-01-26T12:00:42.793Z,99.78
2023-01-26T12:03:27.040Z,99.94
2023-01-26T12:06:04.024Z,99.35
2023-01-26T12:08:41.630Z,99.48
2023-01-26T12:11:22.870Z,99.33
2023-01-26T12:14:08.142Z,100.00
2023-01-26T12:17:11.419Z,100.00
2023-01-26T12:20:05.888Z,99.67
2023-01-26T12:22:40.295Z,100.00
2023-01-26T12:25:26.907Z,99.70
2023-01-26T12:28:22.289Z,99.94
2023-01-26T12:31:31.009Z,99.42
2023-01-26T12:34:02.419Z,100.00
2023-01-26T12:36:42.592Z,100.00
2023-01-26T12:39:21.230Z,100.00
2023-01-26T12:42:03.258Z,99.60
2023-01-26T12:44:54.945Z,100.00
2023-01-26T12:47:38.411Z,99.68
2023-01-26T12:50:24.805Z,100.00
2023-01-26T12:53:07.741Z,99.90
2023-01-26T12:56:09.262Z,100.00
2023-01-26T12:58:44.269Z,100.00
2023-01-26T13:01:19.053Z,99.78
2023-01-26T13:04:06.493Z,100.00
2023-01-26T13:06:37.842Z,99.42
2023-01-26T13:09:24.987Z,100.00
2023-01-26T13:12:00.118Z,99.57
2023-01-26T13:14:43.435Z,99.60
2023-01-26T13:17:14.661Z,100.00
2023-01-26T13:19:45.882Z,100.00
2023-01-26T13:22:26.289Z,100.00
2023-01-26T13:24:58.571Z,100.00
2023-01-26T13:27:38.816Z,100.00
2023-01-26T13:30:22.037Z,100.00
2023-01-26T13:33:04.176Z,100.00
2023-01-26T13:35:36.278Z,100.00
2023-01-26T13:38:19.299Z,100.00
2023-01-26T13:40:50.736Z,100.00
2023-01-26T13:43:35.346Z,100.00
2023-01-26T13:46:25.688Z,100.00
2023-01-26T13:48:57.430Z,100.00
2023-01-26T13:51:31.410Z,100.00
2023-01-26T13:54:05.637Z,100.00
2023-01-26T13:56:39.345Z,100.00
2023-01-26T13:59:16.682Z,100.00
2023-01-26T14:01:50.834Z,100.00
2023-01-26T14:04:30.872Z,100.00
2023-01-26T14:07:15.501Z,100.00
2023-01-26T14:09:50.343Z,100.00
2023-01-26T14:12:27.815Z,100.00
2023-01-26T14:15:03.062Z,100.00
2023-01-26T14:17:36.795Z,100.00
2023-01-26T14:20:24.477Z,100.00
2023-01-26T14:23:22.199Z,100.00
2023-01-26T14:26:04.490Z,100.00
2023-01-26T14:28:40.700Z,100.00
2023-01-26T14:31:26.522Z,100.00
2023-01-26T14:33:59.582Z,100.00
2023-01-26T14:36:39.005Z,100.00
2023-01-26T14:39:19.698Z,100.00
2023-01-26T14:41:51.239Z,100.00
2023-01-26T14:44:22.564Z,100.00
2023-01-26T14:47:04.394Z,100.00
2023-01-26T14:49:45.571Z,100.00
2023-01-26T14:52:21.036Z,100.00
2023-01-26T14:55:03.960Z,100.00
2023-01-26T14:57:35.259Z,100.00
2023-01-26T15:00:10.975Z,100.00
2023-01-26T15:02:46.309Z,100.00
2023-01-26T15:05:20.673Z,100.00
2023-01-26T15:07:57.569Z,100.00
2023-01-26T15:10:34.589Z,100.00
2023-01-26T15:13:19.061Z,100.00
2023-01-26T15:16:05.428Z,100.00
2023-01-26T15:18:36.905Z,100.00
2023-01-26T15:21:11.323Z,100.00
2023-01-26T15:23:45.221Z,100.00
2023-01-26T15:26:27.372Z,100.00
2023-01-26T15:29:01.043Z,100.00
2023-01-26T15:31:37.923Z,100.00
2023-01-26T15:34:33.702Z,100.00
2023-01-26T15:37:33.620Z,100.00
2023-01-26T15:40:05.418Z,100.00
2023-01-26T15:42:36.814Z,100.00
2023-01-26T15:45:27.002Z,100.00
2023-01-26T15:47:58.329Z,100.00
2023-01-26T15:50:29.597Z,100.00
2023-01-26T15:53:00.950Z,100.00
2023-01-26T15:55:33.603Z,100.00
2023-01-26T15:58:04.922Z,100.00
2023-01-26T16:00:37.084Z,100.00
2023-01-26T16:03:14.903Z,100.00
2023-01-26T16:05:50.267Z,100.00
2023-01-26T16:08:21.559Z,100.00
2023-01-26T16:10:54.344Z,100.00
2023-01-26T16:13:25.671Z,100.00
2023-01-26T16:15:56.967Z,100.00
2023-01-26T16:18:28.226Z,100.00
2023-01-26T16:20:59.479Z,100.00
2023-01-26T16:23:31.786Z,100.00
2023-01-26T16:26:03.161Z,100.00
2023-01-26T16:28:34.502Z,100.00
2023-01-26T16:31:14.195Z,100.00
2023-01-26T16:33:46.912Z,100.00
2023-01-26T16:36:19.762Z,100.00
2023-01-26T16:38:51.083Z,100.00
2023-01-26T16:41:30.845Z,100.00
2023-01-26T16:44:03.531Z,100.00
2023-01-26T16:46:34.764Z,100.00
2023-01-26T16:49:06.065Z,100.00
2023-01-26T16:51:39.093Z,100.00
2023-01-26T16:54:11.607Z,100.00
2023-01-26T16:56:42.870Z,100.00
2023-01-26T16:59:14.131Z,100.00
2023-01-26T17:01:45.583Z,100.00
2023-01-26T17:04:16.865Z,100.00
2023-01-26T17:06:48.517Z,100.00
2023-01-26T17:09:21.053Z,100.00
2023-01-26T17:11:52.313Z,100.00
2023-01-26T17:14:24.308Z,100.00
2023-01-26T17:16:55.620Z,100.00
2023-01-26T17:19:27.058Z,100.00
2023-01-26T17:21:58.340Z,100.00
2023-01-26T17:24:29.654Z,100.00
2023-01-26T17:27:01.273Z,100.00
2023-01-26T17:29:33.661Z,100.00
2023-01-26T17:32:05.692Z,100.00
2023-01-26T17:34:36.957Z,100.00
2023-01-26T17:37:08.399Z,100.00
2023-01-26T17:39:39.662Z,100.00
2023-01-26T17:42:11.331Z,100.00
2023-01-26T17:44:42.590Z,100.00
2023-01-26T17:47:14.044Z,100.00
2023-01-26T17:49:45.348Z,100.00
2023-01-26T17:52:16.762Z,100.00
2023-01-26T17:54:48.018Z,100.00
2023-01-26T17:57:19.509Z,100.00
2023-01-26T17:59:50.785Z,100.00
2023-01-26T18:02:22.085Z,100.00
2023-01-26T18:04:53.461Z,100.00
2023-01-26T18:07:25.043Z,100.00
2023-01-26T18:09:56.402Z,100.00
2023-01-26T18:12:27.669Z,100.00
2023-01-26T18:14:58.931Z,100.00
2023-01-26T18:17:30.305Z,100.00
2023-01-26T18:20:01.586Z,100.00
2023-01-26T18:22:33.141Z,100.00
2023-01-26T18:25:04.840Z,100.00
2023-01-26T18:27:36.153Z,100.00
2023-01-26T18:30:09.341Z,100.00
2023-01-26T18:32:40.609Z,100.00
2023-01-26T18:35:12.158Z,100.00
2023-01-26T18:37:43.612Z,100.00
2023-01-26T18:40:15.218Z,100.00
2023-01-26T18:42:47.082Z,100.00
2023-01-26T18:45:18.450Z,100.00
2023-01-26T18:47:50.222Z,100.00
2023-01-26T18:50:21.654Z,100.00
2023-01-26T18:52:53.175Z,100.00
2023-01-26T18:55:24.537Z,100.00
2023-01-26T18:57:55.801Z,100.00
2023-01-26T19:00:27.213Z,100.00
2023-01-26T19:02:58.529Z,100.00
2023-01-26T19:05:30.841Z,100.00
2023-01-26T19:08:10.115Z,100.00
2023-01-26T19:10:41.753Z,100.00
2023-01-26T19:13:13.235Z,100.00
2023-01-26T19:15:48.973Z,100.00
2023-01-26T19:18:20.434Z,100.00
2023-01-26T19:20:56.663Z,100.00
2023-01-26T19:23:28.439Z,100.00
2023-01-26T19:26:00.160Z,100.00
2023-01-26T19:28:31.446Z,100.00
2023-01-26T19:31:03.660Z,100.00
2023-01-26T19:33:35.767Z,100.00
2023-01-26T19:36:07.751Z,100.00
2023-01-26T19:38:39.692Z,100.00
2023-01-26T19:41:11.198Z,100.00
2023-01-26T19:43:44.212Z,100.00
2023-01-26T19:46:17.182Z,100.00
2023-01-26T19:48:48.859Z,100.00
2023-01-26T19:51:25.557Z,100.00
2023-01-26T19:53:58.700Z,100.00
2023-01-26T19:56:32.920Z,100.00
2023-01-26T19:59:06.917Z,100.00
2023-01-26T20:01:38.572Z,100.00
2023-01-26T20:04:13.653Z,100.00
2023-01-26T20:06:48.575Z,100.00
2023-01-26T20:09:20.048Z,100.00
2023-01-26T20:11:52.506Z,100.00
2023-01-26T20:14:23.829Z,100.00
2023-01-26T20:16:55.138Z,100.00
2023-01-26T20:19:27.769Z,100.00
2023-01-26T20:22:01.190Z,100.00
2023-01-26T20:24:32.530Z,100.00
2023-01-26T20:27:03.936Z,100.00
2023-01-26T20:29:36.690Z,100.00
2023-01-26T20:32:07.983Z,100.00
2023-01-26T20:34:40.998Z,100.00
2023-01-26T20:37:12.556Z,100.00
2023-01-26T20:39:46.914Z,100.00
2023-01-26T20:42:18.808Z,100.00
2023-01-26T20:44:50.764Z,100.00
2023-01-26T20:47:22.437Z,100.00
2023-01-26T20:49:56.012Z,100.00
2023-01-26T20:52:27.377Z,100.00
2023-01-26T20:54:59.164Z,100.00
2023-01-26T20:57:32.163Z,100.00
2023-01-26T21:00:05.197Z,100.00
2023-01-26T21:02:36.459Z,100.00
2023-01-26T21:05:08.428Z,100.00
2023-01-26T21:07:39.688Z,100.00
2023-01-26T21:10:11.391Z,100.00
2023-01-26T21:12:42.913Z,100.00
2023-01-26T21:15:14.246Z,100.00
2023-01-26T21:17:45.489Z,100.00
2023-01-26T21:20:16.846Z,100.00
2023-01-26T21:22:48.109Z,100.00
2023-01-26T21:25:19.395Z,100.00
2023-01-26T21:27:52.188Z,100.00
2023-01-26T21:30:23.759Z,100.00
2023-01-26T21:32:55.001Z,100.00
2023-01-26T21:35:26.278Z,100.00
2023-01-26T21:37:58.944Z,100.00
2023-01-26T21:40:30.227Z,100.00
2023-01-26T21:43:01.479Z,100.00
2023-01-26T21:45:52.785Z,100.00
2023-01-26T21:48:27.994Z,100.00
2023-01-26T21:51:19.397Z,100.00
2023-01-26T21:53:50.707Z,100.00
2023-01-26T21:56:21.962Z,100.00
2023-01-26T21:59:14.389Z,100.00
2023-01-26T22:01:48.720Z,100.00
2023-01-26T22:04:26.034Z,100.00
2023-01-26T22:06:57.809Z,100.00
2023-01-26T22:09:29.911Z,100.00
2023-01-26T22:12:01.271Z,100.00
2023-01-26T22:14:32.678Z,100.00
2023-01-26T22:17:03.977Z,100.00
2023-01-26T22:19:35.336Z,100.00
2023-01-26T22:22:08.740Z,100.00
2023-01-26T22:24:40.017Z,100.00
2023-01-26T22:27:11.301Z,100.00
2023-01-26T22:29:42.579Z,100.00
2023-01-26T22:32:13.922Z,100.00
2023-01-26T22:34:45.394Z,100.00
2023-01-26T22:37:17.359Z,100.00
2023-01-26T22:39:49.001Z,100.00
2023-01-26T22:42:21.729Z,100.00
2023-01-26T22:44:52.984Z,100.00
2023-01-26T22:47:24.255Z,100.00
2023-01-26T22:49:55.519Z,100.00
2023-01-26T22:52:26.866Z,100.00
2023-01-26T22:54:58.161Z,100.00
2023-01-26T22:57:29.436Z,100.00
2023-01-26T23:00:00.725Z,100.00
2023-01-26T23:02:32.013Z,100.00
2023-01-26T23:05:03.408Z,100.00
2023-01-26T23:07:34.709Z,100.00
2023-01-26T23:10:06.747Z,100.00
2023-01-26T23:12:38.013Z,100.00
2023-01-26T23:15:09.850Z,100.00
2023-01-26T23:17:41.114Z,100.00
2023-01-26T23:20:12.940Z,100.00
2023-01-26T23:22:44.616Z,100.00
2023-01-26T23:25:34.701Z,100.00
2023-01-26T23:28:06.005Z,100.00
2023-01-26T23:30:37.373Z,100.00
2023-01-26T23:33:08.661Z,100.00
2023-01-26T23:35:39.914Z,100.00
2023-01-26T23:38:11.644Z,100.00
2023-01-26T23:40:44.322Z,100.00
2023-01-26T23:43:17.443Z,100.00
2023-01-26T23:45:50.098Z,100.00
2023-01-26T23:48:21.444Z,100.00
2023-01-26T23:50:57.372Z,100.00
2023-01-26T23:53:30.541Z,100.00
2023-01-26T23:56:07.260Z,100.00
2023-01-26T23:58:38.590Z,100.00
